Time;durP1;ratioP1;P1;durP2;ratioP2;P2;SDS_P1;SDS_P2;PMS_P1;PMS_P2;Temp;Humidity;BMP_temperature;BMP_pressure;BME280_temperature;BME280_humidity;BME280_pressure;Samples;Min_cycle;Max_cycle;Signal;HPM_P1;HPM_P2
2021/01/13 00:02:10;;;;;;;40.35;29.45;;;7.90;64.60;;;;;;5073306;28;20028;-69
2021/01/13 00:04:36;;;;;;;41.92;29.85;;;7.80;65.00;;;;;;5073228;28;20021;-70
2021/01/13 00:07:03;;;;;;;40.72;29.23;;;7.80;64.60;;;;;;5072798;28;20458;-70
2021/01/13 00:09:29;;;;;;;45.20;30.15;;;7.70;65.40;;;;;;5072695;28;20460;-71
2021/01/13 00:11:59;;;;;;;42.03;31.08;;;7.80;65.30;;;;;;5072678;28;20049;-70
2021/01/13 00:14:25;;;;;;;42.85;31.70;;;7.80;65.20;;;;;;5076829;28;20107;-67
2021/01/13 00:16:53;;;;;;;42.67;31.73;;;7.70;64.90;;;;;;5077222;28;20040;-69
2021/01/13 00:19:19;;;;;;;42.63;32.70;;;7.70;65.20;;;;;;5076872;28;20032;-67
2021/01/13 00:21:52;;;;;;;49.50;32.08;;;7.70;65.40;;;;;;5077251;28;20021;-73
2021/01/13 00:24:19;;;;;;;31.07;22.97;;;7.60;65.60;;;;;;5077103;28;20024;-76
2021/01/13 00:26:45;;;;;;;45.13;31.98;;;7.60;66.00;;;;;;5076972;28;20033;-73
2021/01/13 00:29:12;;;;;;;42.90;30.08;;;7.60;65.70;;;;;;5076756;28;20056;-71
2021/01/13 00:31:37;;;;;;;42.47;29.88;;;7.60;65.40;;;;;;5076840;28;20032;-75
2021/01/13 00:34:08;;;;;;;38.30;29.67;;;7.50;65.50;;;;;;5076719;28;20082;-75
2021/01/13 00:36:34;;;;;;;39.25;30.02;;;7.40;65.70;;;;;;5076673;28;20089;-76
2021/01/13 00:39:00;;;;;;;41.28;30.20;;;7.40;66.50;;;;;;5077342;28;20100;-73
2021/01/13 00:41:25;;;;;;;41.65;30.80;;;7.40;65.70;;;;;;5076854;28;20025;-75
2021/01/13 00:43:53;;;;;;;42.05;30.75;;;7.30;66.10;;;;;;5076575;28;20470;-71
2021/01/13 00:46:19;;;;;;;43.45;28.67;;;7.40;66.00;;;;;;5076371;28;20074;-74
2021/01/13 00:48:45;;;;;;;41.90;29.05;;;7.40;65.60;;;;;;5076560;28;20041;-72
2021/01/13 00:51:11;;;;;;;39.25;28.60;;;7.30;66.10;;;;;;5076207;28;20115;-74
2021/01/13 00:53:37;;;;;;;39.80;28.25;;;7.30;65.80;;;;;;5076296;28;20024;-77
2021/01/13 00:56:03;;;;;;;36.60;27.90;;;7.30;65.80;;;;;;5075268;28;20052;-76
2021/01/13 00:58:29;;;;;;;36.33;27.80;;;7.30;65.70;;;;;;5076419;28;20039;-71
2021/01/13 01:00:54;;;;;;;38.13;27.98;;;7.30;66.00;;;;;;5075955;28;20107;-73
2021/01/13 01:03:20;;;;;;;42.85;28.90;;;7.20;65.90;;;;;;5076800;28;20059;-69
2021/01/13 01:05:48;;;;;;;35.17;26.23;;;7.10;65.80;;;;;;5077398;28;20051;-69
2021/01/13 01:08:14;;;;;;;35.35;26.40;;;7.10;66.20;;;;;;5077481;28;20039;-71
2021/01/13 01:10:40;;;;;;;32.63;25.50;;;7.20;66.10;;;;;;5076571;28;20032;-71
2021/01/13 01:13:08;;;;;;;32.28;26.17;;;7.10;65.80;;;;;;5075682;28;20033;-74
2021/01/13 01:15:35;;;;;;;38.00;27.95;;;7.10;65.90;;;;;;5075591;28;20039;-70
2021/01/13 01:18:03;;;;;;;36.25;27.73;;;6.90;66.20;;;;;;5076058;28;20109;-67
2021/01/13 01:20:28;;;;;;;37.50;28.25;;;6.80;66.40;;;;;;5075699;28;20425;-67
2021/01/13 01:22:55;;;;;;;36.67;27.65;;;6.70;66.50;;;;;;5075859;28;20099;-68
2021/01/13 01:25:22;;;;;;;39.95;28.92;;;6.70;67.00;;;;;;5075649;28;20107;-67
2021/01/13 01:27:53;;;;;;;35.40;27.65;;;6.70;66.80;;;;;;5075619;28;20495;-66
2021/01/13 01:30:20;;;;;;;36.67;28.95;;;6.60;66.70;;;;;;5075244;28;20416;-67
2021/01/13 01:32:46;;;;;;;38.30;27.42;;;6.50;66.50;;;;;;5075575;28;20017;-67
2021/01/13 01:35:15;;;;;;;38.03;26.73;;;6.40;66.80;;;;;;5075847;28;20024;-66
2021/01/13 01:37:41;;;;;;;39.28;26.98;;;6.40;66.80;;;;;;5075615;28;20032;-66
2021/01/13 01:40:09;;;;;;;37.28;27.20;;;6.20;66.80;;;;;;5075385;28;20107;-68
2021/01/13 01:42:49;;;;;;;36.85;26.85;;;6.20;67.20;;;;;;5075112;28;20025;-67
2021/01/13 01:45:26;;;;;;;36.55;25.85;;;6.30;67.70;;;;;;5074045;28;20044;-65
2021/01/13 01:48:13;;;;;;;32.13;25.35;;;6.30;67.80;;;;;;5075647;28;20555;-66
2021/01/13 01:50:41;;;;;;;34.95;25.00;;;6.30;67.90;;;;;;5075063;28;20068;-69
2021/01/13 01:53:22;;;;;;;32.38;24.23;;;6.40;67.00;;;;;;5075111;28;20382;-72
2021/01/13 01:55:53;;;;;;;33.45;23.98;;;6.30;67.20;;;;;;5076420;28;20051;-67
2021/01/13 01:58:37;;;;;;;29.77;23.27;;;6.40;68.10;;;;;;5075198;28;20093;-72
2021/01/13 02:01:05;;;;;;;33.15;24.00;;;6.50;67.00;;;;;;5074921;28;20489;-66
2021/01/13 02:03:40;;;;;;;30.52;22.90;;;6.50;66.70;;;;;;5074804;28;20104;-69
2021/01/13 02:06:08;;;;;;;32.83;23.65;;;6.40;66.80;;;;;;5075036;28;20046;-67
2021/01/13 02:08:38;;;;;;;31.27;22.88;;;6.40;66.90;;;;;;5074946;28;20041;-65
2021/01/13 02:11:05;;;;;;;32.78;22.95;;;6.50;66.80;;;;;;5074574;28;20110;-66
2021/01/13 02:13:31;;;;;;;28.02;21.83;;;6.50;66.80;;;;;;5074902;28;20024;-70
2021/01/13 02:15:57;;;;;;;30.08;22.05;;;6.50;66.60;;;;;;5074536;28;20032;-68
2021/01/13 02:18:29;;;;;;;30.50;22.67;;;6.60;66.70;;;;;;5074800;28;20029;-67
2021/01/13 02:21:02;;;;;;;28.45;20.75;;;6.60;66.10;;;;;;5074674;28;20032;-67
2021/01/13 02:23:35;;;;;;;26.48;20.55;;;6.60;65.80;;;;;;5074608;28;20099;-68
2021/01/13 02:26:25;;;;;;;26.90;20.03;;;6.60;65.60;;;;;;5074850;28;20077;-67
2021/01/13 02:28:54;;;;;;;26.48;20.48;;;6.50;66.20;;;;;;5074649;28;20033;-65
2021/01/13 02:31:29;;;;;;;26.65;19.77;;;6.50;65.80;;;;;;5074541;28;20386;-66
2021/01/13 02:34:17;;;;;;;27.92;20.23;;;6.50;66.00;;;;;;5074847;28;20033;-66
2021/01/13 02:37:30;;;;;;;25.80;19.23;;;6.50;65.80;;;;;;5073471;28;20025;-66
2021/01/13 02:39:56;;;;;;;26.02;18.88;;;6.40;65.80;;;;;;5056062;28;20532;-66
2021/01/13 02:42:26;;;;;;;27.15;18.67;;;6.30;65.80;;;;;;5074223;28;20024;-66
2021/01/13 02:45:19;;;;;;;25.35;18.15;;;6.20;65.50;;;;;;5074560;28;20028;-69
2021/01/13 02:47:56;;;;;;;23.73;17.25;;;6.20;66.00;;;;;;5072329;28;20485;-69
2021/01/13 02:50:27;;;;;;;24.60;18.10;;;6.20;66.30;;;;;;5079070;28;20398;-65
2021/01/13 02:53:11;;;;;;;26.33;17.75;;;6.20;65.80;;;;;;5077380;28;20044;-67
2021/01/13 02:55:46;;;;;;;;;;;6.10;65.80;;;;;;5074505;28;20062;-66
2021/01/13 02:58:12;;;;;;;24.60;17.92;;;6.10;66.70;;;;;;5074398;28;19947;-67
2021/01/13 03:00:38;;;;;;;23.25;17.38;;;6.20;65.90;;;;;;5074267;28;20032;-68
2021/01/13 03:03:05;;;;;;;25.15;17.80;;;6.00;65.30;;;;;;5073588;28;20044;-68
2021/01/13 03:05:32;;;;;;;23.60;17.98;;;5.90;65.60;;;;;;5073000;28;20401;-67
2021/01/13 03:07:59;;;;;;;21.05;16.80;;;5.80;66.20;;;;;;5074178;28;20427;-66
2021/01/13 03:10:28;;;;;;;23.55;17.23;;;5.80;66.30;;;;;;5073754;28;20141;-66
2021/01/13 03:13:02;;;;;;;24.23;16.95;;;5.90;66.20;;;;;;5073490;28;20056;-68
2021/01/13 03:15:29;;;;;;;23.73;17.35;;;5.90;66.80;;;;;;5073796;28;20038;-68
2021/01/13 03:18:31;;;;;;;21.90;16.58;;;6.00;66.00;;;;;;5073667;28;20021;-66
2021/01/13 03:21:17;;;;;;;23.63;16.42;;;6.00;66.40;;;;;;5071523;28;20035;-65
2021/01/13 03:24:14;;;;;;;22.83;17.35;;;6.00;65.90;;;;;;5073650;28;20478;-65
2021/01/13 03:26:46;;;;;;;22.70;16.80;;;6.10;65.90;;;;;;5065490;28;20086;-65
2021/01/13 03:29:19;;;;;;;21.10;15.63;;;6.10;65.90;;;;;;5073640;28;20090;-67
2021/01/13 03:31:55;;;;;;;24.13;17.00;;;6.10;66.30;;;;;;5074175;28;20081;-65
2021/01/13 03:34:31;;;;;;;19.52;15.52;;;6.00;65.60;;;;;;5074491;28;20032;-67
2021/01/13 03:36:56;;;;;;;24.65;16.90;;;5.90;66.00;;;;;;5073360;28;20107;-75
2021/01/13 03:39:23;;;;;;;21.17;16.75;;;5.90;66.10;;;;;;5073200;28;20068;-75
2021/01/13 03:41:55;;;;;;;22.80;16.83;;;5.90;66.10;;;;;;5073461;28;20028;-72
2021/01/13 03:44:32;;;;;;;22.05;16.08;;;6.00;66.10;;;;;;5073582;28;20051;-68
2021/01/13 03:47:16;;;;;;;21.85;15.80;;;6.00;65.70;;;;;;5073234;28;20025;-77
2021/01/13 03:50:10;;;;;;;24.73;16.70;;;6.00;65.60;;;;;;5071848;28;20041;-73
2021/01/13 03:52:53;;;;;;;;;;;5.90;66.60;;;;;;5069424;28;20401;-74
2021/01/13 03:55:22;;;;;;;21.73;15.82;;;5.80;66.50;;;;;;5074452;28;19950;-75
2021/01/13 03:57:56;;;;;;;20.77;15.73;;;5.80;66.50;;;;;;5074738;28;20052;-77
2021/01/13 04:00:29;;;;;;;21.13;15.45;;;5.80;66.80;;;;;;5073700;28;20029;-74
2021/01/13 04:03:07;;;;;;;21.65;16.67;;;5.80;66.90;;;;;;5073581;28;20021;-67
2021/01/13 04:05:40;;;;;;;23.02;16.70;;;5.70;66.30;;;;;;5073203;28;20025;-69
2021/01/13 04:08:06;;;;;;;23.05;16.73;;;5.70;66.10;;;;;;5073324;28;20024;-68
2021/01/13 04:10:32;;;;;;;22.10;16.67;;;5.70;66.50;;;;;;5073224;28;20081;-69
2021/01/13 04:13:16;;;;;;;22.25;16.65;;;5.70;66.50;;;;;;5072974;28;20485;-67
2021/01/13 04:15:42;;;;;;;24.92;16.75;;;5.70;67.50;;;;;;5073122;28;20035;-68
2021/01/13 04:18:10;;;;;;;20.48;16.30;;;5.80;66.60;;;;;;5073323;28;20025;-67
2021/01/13 04:20:37;;;;;;;23.77;16.70;;;5.80;66.20;;;;;;5072834;28;20060;-70
2021/01/13 04:23:05;;;;;;;22.55;17.38;;;5.80;66.20;;;;;;5072941;28;20048;-66
2021/01/13 04:25:31;;;;;;;21.63;16.15;;;5.80;66.20;;;;;;5072786;28;20029;-67
2021/01/13 04:27:57;;;;;;;24.73;16.65;;;5.80;66.30;;;;;;5072978;28;20035;-65
2021/01/13 04:30:26;;;;;;;21.38;15.60;;;5.70;66.60;;;;;;5072601;28;20036;-67
2021/01/13 04:32:55;;;;;;;23.60;16.73;;;5.70;66.40;;;;;;5073256;28;20028;-70
2021/01/13 04:35:22;;;;;;;23.10;16.63;;;5.50;66.30;;;;;;5072925;28;20456;-68
2021/01/13 04:37:57;;;;;;;24.48;16.67;;;5.40;66.60;;;;;;5073039;28;20039;-71
2021/01/13 04:40:35;;;;;;;22.25;17.20;;;5.40;67.60;;;;;;5072676;28;20094;-65
2021/01/13 04:43:06;;;;;;;24.52;17.08;;;5.30;68.00;;;;;;5072925;28;20078;-68
2021/01/13 04:45:43;;;;;;;25.85;18.13;;;5.40;67.80;;;;;;5073078;28;20032;-66
2021/01/13 04:48:11;;;;;;;26.50;17.73;;;5.40;66.70;;;;;;5075352;28;20059;-67
2021/01/13 04:50:42;;;;;;;24.35;16.80;;;5.40;67.10;;;;;;5073106;28;20037;-71
2021/01/13 04:53:17;;;;;;;24.40;17.33;;;5.50;66.60;;;;;;5071906;28;20355;-70
2021/01/13 04:55:46;;;;;;;24.95;17.42;;;5.20;67.20;;;;;;5072810;28;20035;-68
2021/01/13 04:58:27;;;;;;;23.42;17.00;;;5.20;67.00;;;;;;5072687;28;20055;-67
2021/01/13 05:01:30;;;;;;;23.42;16.20;;;5.20;67.80;;;;;;5075167;28;20416;-69
2021/01/13 05:04:16;;;;;;;21.70;17.13;;;5.20;67.50;;;;;;5076611;28;20419;-68
2021/01/13 05:07:24;;;;;;;23.30;16.75;;;5.10;67.30;;;;;;5076209;28;20039;-71
2021/01/13 05:10:10;;;;;;;24.25;16.50;;;4.90;68.10;;;;;;5076179;28;20413;-67
2021/01/13 05:12:52;;;;;;;24.42;17.05;;;5.00;68.80;;;;;;5076050;28;20491;-71
2021/01/13 05:15:27;;;;;;;26.50;17.10;;;5.00;68.50;;;;;;5076190;28;20107;-74
2021/01/13 05:17:59;;;;;;;23.88;16.95;;;5.00;68.20;;;;;;5076851;28;20020;-68
2021/01/13 05:20:27;;;;;;;20.95;15.85;;;4.90;67.30;;;;;;5079983;28;20416;-72
2021/01/13 05:22:53;;;;;;;22.95;17.23;;;4.80;67.20;;;;;;5078753;28;20035;-69
2021/01/13 05:25:43;;;;;;;22.13;16.40;;;4.80;68.50;;;;;;5075830;28;20024;-70
2021/01/13 05:28:21;;;;;;;20.80;16.02;;;4.90;69.10;;;;;;5075813;28;20028;-73
2021/01/13 05:30:47;;;;;;;20.50;15.27;;;4.90;69.00;;;;;;5075523;28;20041;-74
2021/01/13 05:33:32;;;;;;;20.88;16.15;;;4.80;67.70;;;;;;5075933;28;20028;-70
2021/01/13 05:36:05;;;;;;;20.40;14.95;;;4.80;70.00;;;;;;5076037;28;20024;-73
2021/01/13 05:38:37;;;;;;;21.92;15.07;;;4.70;68.90;;;;;;5076677;28;20036;-75
2021/01/13 05:41:09;;;;;;;22.73;15.90;;;4.60;70.00;;;;;;5076388;28;20036;-70
2021/01/13 05:43:47;;;;;;;21.52;16.02;;;4.60;69.50;;;;;;5082895;28;20021;-67
2021/01/13 05:46:15;;;;;;;19.00;14.13;;;4.70;70.70;;;;;;5082965;28;20028;-72
2021/01/13 05:48:42;;;;;;;21.00;14.55;;;4.80;68.70;;;;;;5075529;28;20501;-74
2021/01/13 05:51:08;;;;;;;20.63;14.57;;;4.80;68.40;;;;;;5075688;28;20045;-69
2021/01/13 05:53:35;;;;;;;21.38;15.02;;;4.80;68.30;;;;;;5075784;28;20199;-66
2021/01/13 05:56:04;;;;;;;17.67;13.95;;;4.90;68.80;;;;;;5075552;28;20024;-73
2021/01/13 05:58:30;;;;;;;18.65;14.32;;;4.90;68.20;;;;;;5075570;28;20070;-68
2021/01/13 06:01:00;;;;;;;19.95;14.77;;;4.90;68.80;;;;;;5075053;28;20032;-68
2021/01/13 06:03:29;;;;;;;21.10;14.07;;;5.00;67.90;;;;;;5075107;28;20029;-69
2021/01/13 06:05:59;;;;;;;20.65;14.30;;;5.00;67.50;;;;;;5075024;28;20028;-75
2021/01/13 06:08:31;;;;;;;22.40;14.65;;;5.00;68.00;;;;;;5073730;28;20025;-66
2021/01/13 06:10:58;;;;;;;19.90;14.57;;;5.10;67.40;;;;;;5073594;28;20043;-68
2021/01/13 06:13:32;;;;;;;20.00;13.80;;;5.10;67.10;;;;;;5074963;28;20078;-67
2021/01/13 06:16:02;;;;;;;16.15;10.32;;;5.00;66.70;;;;;;5075650;28;20101;-69
2021/01/13 06:18:29;;;;;;;19.98;14.45;;;5.00;67.00;;;;;;5074721;28;20013;-69
2021/01/13 06:21:06;;;;;;;19.42;14.13;;;5.10;67.60;;;;;;5075238;28;20377;-67
2021/01/13 06:23:40;;;;;;;20.95;14.73;;;5.20;67.40;;;;;;5075122;28;20017;-68
2021/01/13 06:26:06;;;;;;;21.25;14.32;;;5.30;66.60;;;;;;5075317;28;20028;-66
2021/01/13 06:28:51;;;;;;;20.55;14.02;;;5.40;66.20;;;;;;5075660;28;20371;-69
2021/01/13 06:31:22;;;;;;;19.80;14.25;;;5.30;65.90;;;;;;5075108;28;20062;-68
2021/01/13 06:33:51;;;;;;;25.27;14.65;;;5.40;66.20;;;;;;5075076;28;20012;-68
2021/01/13 06:36:29;;;;;;;18.30;14.68;;;5.40;66.70;;;;;;5075008;28;20020;-69
2021/01/13 06:39:00;;;;;;;25.70;15.32;;;5.30;66.60;;;;;;5075131;28;20107;-67
2021/01/13 06:41:27;;;;;;;21.20;14.20;;;5.30;66.50;;;;;;5074936;28;20031;-68
2021/01/13 06:43:57;;;;;;;23.35;15.07;;;5.30;65.90;;;;;;5074371;28;20474;-70
2021/01/13 06:46:23;;;;;;;20.95;15.15;;;5.30;65.90;;;;;;5073011;28;20378;-69
2021/01/13 06:48:48;;;;;;;21.15;15.35;;;5.30;66.00;;;;;;5073930;28;20024;-66
2021/01/13 06:51:18;;;;;;;19.55;14.57;;;5.30;66.00;;;;;;5074228;28;20070;-73
2021/01/13 06:53:47;;;;;;;20.75;14.75;;;5.30;65.60;;;;;;5074157;28;20025;-69
2021/01/13 06:56:17;;;;;;;20.83;14.45;;;5.20;65.50;;;;;;5074171;28;20023;-71
2021/01/13 06:59:00;;;;;;;20.52;15.10;;;5.30;65.60;;;;;;5072758;28;20090;-69
2021/01/13 07:01:26;;;;;;;21.45;16.38;;;5.30;65.60;;;;;;5074168;28;20060;-69
2021/01/13 07:04:06;;;;;;;22.08;14.90;;;5.40;65.60;;;;;;5074199;28;20106;-70
2021/01/13 07:06:32;;;;;;;23.42;15.35;;;5.50;65.30;;;;;;5073865;28;20029;-68
2021/01/13 07:08:58;;;;;;;22.05;15.02;;;5.50;65.40;;;;;;5073711;28;20105;-71
2021/01/13 07:11:26;;;;;;;24.23;15.05;;;5.40;65.10;;;;;;5073988;28;20068;-73
2021/01/13 07:14:00;;;;;;;21.25;15.50;;;5.40;65.20;;;;;;5074165;28;20355;-71
2021/01/13 07:16:30;;;;;;;21.50;15.30;;;5.30;65.10;;;;;;5075871;28;20036;-70
2021/01/13 07:19:06;;;;;;;20.85;14.90;;;5.40;65.20;;;;;;5073736;28;20055;-69
2021/01/13 07:21:40;;;;;;;18.38;14.32;;;5.40;65.40;;;;;;5073335;28;20020;-67
2021/01/13 07:24:15;;;;;;;21.83;15.20;;;5.50;65.80;;;;;;5073942;28;20037;-68
2021/01/13 07:26:44;;;;;;;21.02;14.32;;;5.60;65.10;;;;;;5073793;28;20063;-71
2021/01/13 07:29:11;;;;;;;21.80;14.90;;;5.70;64.70;;;;;;5073162;28;20353;-71
2021/01/13 07:31:36;;;;;;;20.83;14.52;;;5.70;65.00;;;;;;5073265;28;20033;-74
2021/01/13 07:34:10;;;;;;;19.80;15.18;;;5.70;64.50;;;;;;5073373;28;20012;-65
2021/01/13 07:36:39;;;;;;;22.88;14.50;;;5.70;64.30;;;;;;5073323;28;20039;-70
2021/01/13 07:39:07;;;;;;;26.45;14.40;;;5.80;64.60;;;;;;5073520;28;20489;-66
2021/01/13 07:42:11;;;;;;;20.38;14.05;;;5.90;64.30;;;;;;5073135;28;20020;-69
2021/01/13 07:44:42;;;;;;;21.27;13.75;;;6.00;64.60;;;;;;5073059;28;20485;-71
2021/01/13 07:47:29;;;;;;;18.77;13.98;;;6.00;63.60;;;;;;5073145;28;20073;-66
2021/01/13 07:50:06;;;;;;;19.42;13.00;;;6.00;64.10;;;;;;5072896;28;20036;-73
2021/01/13 07:52:37;;;;;;;21.35;14.82;;;6.10;64.00;;;;;;5073137;28;20021;-68
2021/01/13 07:55:12;;;;;;;21.00;14.65;;;6.20;64.50;;;;;;5073390;28;20389;-71
2021/01/13 07:57:47;;;;;;;21.30;14.50;;;6.30;63.80;;;;;;5073059;28;20372;-72
2021/01/13 08:00:27;;;;;;;22.77;14.90;;;6.30;63.70;;;;;;5073033;28;20473;-72
2021/01/13 08:03:25;;;;;;;21.35;15.50;;;6.30;63.40;;;;;;5073111;28;20057;-70
2021/01/13 08:06:12;;;;;;;22.67;15.90;;;6.20;63.30;;;;;;5069153;28;20066;-73
2021/01/13 08:08:50;;;;;;;23.35;14.98;;;6.10;63.40;;;;;;5072922;28;20027;-69
2021/01/13 08:11:34;;;;;;;24.50;15.95;;;6.00;63.90;;;;;;5072828;28;20535;-68
2021/01/13 08:14:10;;;;;;;;;;;5.80;64.00;;;;;;5073511;28;20042;-69
2021/01/13 08:16:54;;;;;;;20.10;13.63;;;5.80;63.50;;;;;;5072826;28;19909;-69
2021/01/13 08:20:04;;;;;;;18.45;13.60;;;5.60;63.50;;;;;;5072903;28;20056;-70
2021/01/13 08:22:30;;;;;;;17.92;13.05;;;5.60;64.50;;;;;;5073078;28;20028;-66
2021/01/13 08:25:11;;;;;;;19.08;13.98;;;5.70;63.90;;;;;;5071563;28;20021;-67
2021/01/13 08:27:37;;;;;;;23.30;14.30;;;5.80;64.20;;;;;;5073068;28;20430;-71
2021/01/13 08:30:04;;;;;;;26.50;15.05;;;5.80;63.70;;;;;;5072580;28;20029;-69
2021/01/13 08:32:40;;;;;;;20.77;15.02;;;6.00;64.00;;;;;;5072913;28;20071;-72
2021/01/13 08:35:07;;;;;;;20.83;14.07;;;6.10;63.60;;;;;;5076523;28;20465;-73
2021/01/13 08:37:34;;;;;;;21.55;14.80;;;6.20;63.30;;;;;;5080838;28;20048;-74
2021/01/13 08:40:38;;;;;;;23.10;14.57;;;6.30;63.30;;;;;;5090128;28;20031;-76
2021/01/13 08:43:16;;;;;;;21.83;14.17;;;6.40;62.90;;;;;;5077932;28;20033;-77
2021/01/13 08:45:48;;;;;;;19.55;13.57;;;6.60;63.00;;;;;;5080365;28;20291;-77
2021/01/13 08:48:19;;;;;;;19.13;13.63;;;6.70;62.60;;;;;;5078527;28;20465;-76
2021/01/13 08:51:05;;;;;;;19.20;13.85;;;6.80;62.40;;;;;;5077707;28;20052;-76
2021/01/13 08:53:31;;;;;;;20.60;13.73;;;7.00;62.50;;;;;;5069172;28;20047;-70
2021/01/13 08:55:58;;;;;;;26.92;13.90;;;7.00;62.40;;;;;;5076042;28;20107;-67
2021/01/13 08:58:35;;;;;;;18.98;13.85;;;7.10;61.80;;;;;;5075930;28;20033;-70
2021/01/13 09:01:08;;;;;;;20.90;14.23;;;7.10;61.80;;;;;;5075776;28;20107;-70
2021/01/13 09:03:39;;;;;;;17.42;10.27;;;7.20;62.10;;;;;;5075917;28;20020;-71
2021/01/13 09:06:22;;;;;;;18.55;12.88;;;7.20;61.10;;;;;;5076003;28;20111;-70
2021/01/13 09:08:49;;;;;;;20.05;12.98;;;7.20;61.20;;;;;;5075449;28;20032;-70
2021/01/13 09:11:37;;;;;;;19.42;12.82;;;7.10;60.90;;;;;;5076118;28;20044;-68
2021/01/13 09:14:23;;;;;;;21.17;12.63;;;7.20;60.40;;;;;;5075640;28;20039;-68
2021/01/13 09:16:53;;;;;;;22.17;12.43;;;7.20;60.80;;;;;;5075738;28;20025;-67
2021/01/13 09:19:39;;;;;;;22.35;13.15;;;7.30;60.50;;;;;;5075899;28;20037;-73
2021/01/13 09:22:08;;;;;;;18.52;12.25;;;7.40;60.80;;;;;;5076293;28;20036;-70
2021/01/13 09:24:43;;;;;;;20.70;13.32;;;7.50;60.10;;;;;;5077221;28;20029;-73
2021/01/13 09:27:11;;;;;;;25.15;14.18;;;7.60;60.00;;;;;;5076574;28;20473;-76
2021/01/13 09:29:51;;;;;;;18.13;13.30;;;7.70;60.00;;;;;;5074185;28;20370;-74
2021/01/13 09:32:21;;;;;;;18.88;13.23;;;7.70;59.80;;;;;;5075471;28;20032;-71
2021/01/13 09:34:55;;;;;;;20.50;13.27;;;7.80;59.70;;;;;;5075762;28;20057;-76
2021/01/13 09:37:22;;;;;;;24.05;14.32;;;7.80;59.60;;;;;;5075816;28;20450;-71
2021/01/13 09:39:58;;;;;;;20.92;12.90;;;8.00;59.60;;;;;;5074064;28;20119;-70
2021/01/13 09:42:40;;;;;;;23.02;14.68;;;8.00;59.30;;;;;;5075488;28;20020;-69
2021/01/13 09:45:08;;;;;;;21.98;14.85;;;8.20;59.30;;;;;;5075014;28;20177;-69
2021/01/13 09:47:34;;;;;;;20.98;14.23;;;8.20;58.80;;;;;;5075252;28;20017;-73
2021/01/13 09:50:00;;;;;;;20.42;13.98;;;8.30;59.00;;;;;;5074941;28;20032;-69
2021/01/13 09:52:36;;;;;;;21.90;13.65;;;8.40;59.30;;;;;;5075415;28;20031;-69
2021/01/13 09:55:06;;;;;;;23.50;14.23;;;8.40;58.70;;;;;;5075074;28;20036;-74
2021/01/13 09:57:36;;;;;;;19.25;13.98;;;8.50;58.70;;;;;;5074956;28;20075;-71
2021/01/13 10:00:07;;;;;;;23.17;14.45;;;8.60;58.80;;;;;;5074595;28;20035;-76
2021/01/13 10:02:33;;;;;;;23.92;15.07;;;8.60;58.30;;;;;;5074903;28;20103;-72
2021/01/13 10:04:59;;;;;;;22.85;14.57;;;8.70;58.80;;;;;;5074961;28;20530;-73
2021/01/13 10:07:33;;;;;;;29.77;15.80;;;8.70;58.80;;;;;;5074624;28;20553;-68
2021/01/13 10:10:01;;;;;;;22.05;13.85;;;8.80;58.50;;;;;;5074736;28;20036;-70
2021/01/13 10:12:38;;;;;;;19.08;13.50;;;8.90;57.90;;;;;;5074325;28;20051;-74
2021/01/13 10:15:12;;;;;;;22.60;13.35;;;9.00;58.20;;;;;;5074573;28;20389;-68
2021/01/13 10:17:39;;;;;;;23.90;14.73;;;9.00;58.10;;;;;;5074438;28;20108;-70
2021/01/13 10:20:22;;;;;;;19.30;13.70;;;9.10;57.90;;;;;;5074286;28;20032;-78
2021/01/13 10:22:49;;;;;;;19.98;13.07;;;9.20;58.00;;;;;;5074390;28;20024;-71
2021/01/13 10:25:29;;;;;;;19.13;12.63;;;9.30;57.60;;;;;;5074315;28;20388;-71
2021/01/13 10:27:55;;;;;;;17.70;13.02;;;9.30;57.70;;;;;;5074497;28;20021;-74
2021/01/13 10:30:22;;;;;;;19.08;12.35;;;9.40;57.10;;;;;;5074410;28;20048;-71
2021/01/13 10:32:55;;;;;;;21.48;12.13;;;9.50;57.40;;;;;;5074270;28;20020;-75
2021/01/13 10:35:22;;;;;;;;;;;9.50;57.70;;;;;;5074933;28;20024;-77
2021/01/13 10:37:55;;;;;;;20.10;12.63;;;9.60;57.20;;;;;;5074221;28;19999;-76
2021/01/13 10:40:23;;;;;;;18.73;11.88;;;9.70;57.40;;;;;;5073167;28;20028;-72
2021/01/13 10:42:51;;;;;;;19.45;11.50;;;9.80;57.20;;;;;;5074402;28;20024;-76
2021/01/13 10:45:18;;;;;;;16.35;10.73;;;9.90;57.10;;;;;;5074201;28;20027;-75
2021/01/13 10:47:56;;;;;;;15.88;10.30;;;10.00;56.30;;;;;;5074604;28;20021;-77
2021/01/13 10:50:24;;;;;;;16.80;10.85;;;10.10;55.50;;;;;;5074220;28;20112;-77
2021/01/13 10:52:55;;;;;;;16.35;10.55;;;10.30;55.70;;;;;;5073949;28;20066;-78
2021/01/13 10:55:22;;;;;;;13.82;9.73;;;10.40;55.70;;;;;;5074272;28;20103;-77
2021/01/13 10:57:50;;;;;;;26.17;9.90;;;10.50;55.30;;;;;;5073162;28;20028;-76
2021/01/13 11:00:17;;;;;;;16.45;10.07;;;10.60;55.30;;;;;;5073921;28;20024;-76
2021/01/13 11:02:59;;;;;;;20.80;10.68;;;10.80;55.70;;;;;;5074475;28;20016;-75
2021/01/13 11:05:26;;;;;;;19.02;10.02;;;10.90;55.90;;;;;;5072810;28;20409;-75
2021/01/13 11:07:56;;;;;;;13.88;8.90;;;10.90;55.20;;;;;;5072480;28;20029;-75
2021/01/13 11:10:24;;;;;;;12.05;8.07;;;11.00;55.30;;;;;;5073442;28;20048;-75
2021/01/13 11:13:04;;;;;;;12.40;7.63;;;11.00;55.50;;;;;;5073749;28;20127;-76
2021/01/13 11:15:31;;;;;;;11.80;8.05;;;11.10;55.00;;;;;;5073988;28;20135;-79
2021/01/13 11:17:59;;;;;;;13.93;8.05;;;11.10;54.80;;;;;;5074106;28;20465;-75
2021/01/13 11:20:33;;;;;;;12.57;7.72;;;11.20;54.70;;;;;;5073997;28;20044;-72
2021/01/13 11:23:03;;;;;;;14.15;8.90;;;11.20;55.00;;;;;;5073553;28;20020;-69
2021/01/13 11:25:37;;;;;;;14.18;8.75;;;11.30;54.80;;;;;;5073961;28;20161;-70
2021/01/13 11:28:07;;;;;;;15.98;8.93;;;11.40;55.00;;;;;;5074396;28;20393;-71
2021/01/13 11:30:38;;;;;;;13.55;7.53;;;11.50;54.80;;;;;;5074799;28;20036;-69
2021/01/13 11:33:06;;;;;;;13.68;7.30;;;11.50;54.70;;;;;;5073880;28;20051;-70
2021/01/13 11:35:41;;;;;;;19.60;7.15;;;11.60;54.80;;;;;;5074210;28;20029;-70
2021/01/13 11:38:29;;;;;;;10.10;5.05;;;11.60;54.70;;;;;;5073010;28;20106;-72
2021/01/13 11:41:22;;;;;;;9.60;5.40;;;11.70;54.40;;;;;;5075175;28;20107;-72
2021/01/13 11:44:15;;;;;;;14.30;5.70;;;11.70;54.50;;;;;;5074251;28;20477;-74
2021/01/13 11:47:09;;;;;;;12.38;5.13;;;11.80;54.20;;;;;;5073855;28;20312;-75
2021/01/13 11:49:39;;;;;;;11.50;4.57;;;11.90;54.20;;;;;;5073535;28;20131;-75
2021/01/13 11:52:08;;;;;;;12.55;5.03;;;12.00;54.10;;;;;;5073893;28;20028;-76
2021/01/13 11:54:35;;;;;;;8.32;4.15;;;12.10;54.20;;;;;;5074162;28;20055;-77
2021/01/13 11:57:24;;;;;;;8.57;4.20;;;12.10;53.60;;;;;;5072151;28;20103;-72
2021/01/13 11:59:53;;;;;;;8.63;3.97;;;12.10;53.20;;;;;;5073520;28;20029;-78
2021/01/13 12:02:23;;;;;;;8.52;4.22;;;12.20;53.20;;;;;;5073569;28;20055;-78
2021/01/13 12:04:49;;;;;;;8.25;3.55;;;12.20;53.30;;;;;;5073332;28;20111;-77
2021/01/13 12:07:15;;;;;;;11.07;4.63;;;12.20;53.20;;;;;;5073194;28;20040;-75
2021/01/13 12:09:41;;;;;;;6.38;3.63;;;12.20;53.20;;;;;;5073050;28;20029;-76
2021/01/13 12:12:08;;;;;;;7.45;3.50;;;12.30;53.40;;;;;;5071885;28;20566;-75
2021/01/13 12:14:44;;;;;;;7.57;4.25;;;12.40;53.50;;;;;;5073908;28;20029;-76
2021/01/13 12:17:11;;;;;;;8.02;4.03;;;12.40;53.30;;;;;;5074154;28;20176;-77
2021/01/13 12:19:41;;;;;;;7.47;3.75;;;12.50;53.00;;;;;;5072871;28;20021;-73
2021/01/13 12:22:07;;;;;;;8.98;4.47;;;12.50;53.00;;;;;;5074258;28;20021;-79
2021/01/13 12:24:38;;;;;;;10.07;4.25;;;12.50;53.20;;;;;;5072717;28;20482;-74
2021/01/13 12:27:24;;;;;;;10.90;4.20;;;12.50;53.00;;;;;;5073203;28;20424;-68
2021/01/13 12:30:11;;;;;;;10.68;3.65;;;12.60;52.60;;;;;;5072840;28;20058;-72
2021/01/13 12:32:42;;;;;;;11.40;3.88;;;12.70;52.70;;;;;;5072920;28;20044;-73
2021/01/13 12:35:13;;;;;;;8.02;4.03;;;12.70;52.80;;;;;;5073059;28;20021;-73
2021/01/13 12:37:51;;;;;;;8.27;3.83;;;12.70;52.50;;;;;;5072966;28;20028;-71
2021/01/13 12:40:34;;;;;;;6.72;3.63;;;12.70;52.80;;;;;;5071622;28;20495;-76
2021/01/13 12:43:16;;;;;;;6.20;3.78;;;12.70;52.00;;;;;;5072721;28;20017;-78
2021/01/13 12:45:43;;;;;;;8.63;3.97;;;12.70;52.60;;;;;;5071436;28;20078;-75
2021/01/13 12:48:10;;;;;;;8.02;4.20;;;12.80;52.40;;;;;;5072775;28;20044;-74
2021/01/13 12:50:36;;;;;;;9.60;3.78;;;12.80;52.40;;;;;;5072629;28;20099;-76
2021/01/13 12:53:02;;;;;;;13.90;4.00;;;12.80;52.60;;;;;;5071518;28;20028;-77
2021/01/13 12:55:29;;;;;;;7.82;3.90;;;12.90;52.40;;;;;;5072677;28;20027;-76
2021/01/13 12:57:55;;;;;;;10.30;4.15;;;12.90;51.70;;;;;;5072672;28;20028;-75
2021/01/13 13:00:21;;;;;;;11.13;4.00;;;12.90;51.80;;;;;;5072495;28;20035;-77
2021/01/13 13:02:51;;;;;;;8.25;3.88;;;13.00;52.10;;;;;;5072618;28;20013;-74
2021/01/13 13:05:17;;;;;;;8.05;4.30;;;13.00;52.00;;;;;;5072901;28;20036;-75
2021/01/13 13:07:43;;;;;;;8.45;4.00;;;13.00;51.90;;;;;;5072621;28;20366;-79